createdAt,value
2018-05-23T00:00:46.505Z,0.00
2018-05-23T00:01:46.457Z,0.00
2018-05-23T00:02:46.389Z,0.00
2018-05-23T00:03:46.345Z,0.00
2018-05-23T00:04:46.308Z,0.00
2018-05-23T00:05:46.445Z,0.00
2018-05-23T00:06:46.206Z,0.00
2018-05-23T00:07:46.163Z,0.00
2018-05-23T00:08:46.112Z,0.00
2018-05-23T00:09:46.075Z,0.00
2018-05-23T00:10:46.014Z,0.00
2018-05-23T00:11:46.159Z,0.00
2018-05-23T00:12:45.910Z,0.00
2018-05-23T00:13:45.865Z,0.00
2018-05-23T00:14:45.838Z,0.00
2018-05-23T00:15:45.773Z,0.00
2018-05-23T00:16:45.736Z,0.00
2018-05-23T00:17:45.897Z,0.00
2018-05-23T00:18:45.646Z,0.00
2018-05-23T00:19:45.614Z,0.00
2018-05-23T00:20:45.558Z,0.00
2018-05-23T00:21:45.521Z,0.00
2018-05-23T00:22:45.451Z,0.00
2018-05-23T00:23:45.623Z,0.00
2018-05-23T00:24:45.367Z,0.00
2018-05-23T00:25:45.319Z,0.00
2018-05-23T00:26:45.494Z,0.00
2018-05-23T00:27:45.229Z,0.00
2018-05-23T00:28:45.173Z,0.00
2018-05-23T00:29:45.366Z,0.00
2018-05-23T00:30:45.092Z,0.00
2018-05-23T00:31:45.065Z,0.00
2018-05-23T00:32:45.027Z,0.00
2018-05-23T00:33:44.955Z,0.00
2018-05-23T00:34:45.115Z,0.00
2018-05-23T00:35:44.853Z,0.00
2018-05-23T00:36:44.840Z,0.00
2018-05-23T00:37:44.774Z,0.00
2018-05-23T00:38:44.707Z,0.00
2018-05-23T00:39:44.673Z,0.00
2018-05-23T00:40:44.823Z,0.00
2018-05-23T00:41:44.620Z,0.00
2018-05-23T00:42:44.553Z,0.00
2018-05-23T00:43:44.503Z,0.00
2018-05-23T00:44:44.456Z,0.00
2018-05-23T00:45:44.388Z,0.00
2018-05-23T00:46:44.564Z,0.00
2018-05-23T00:47:44.532Z,0.00
2018-05-23T00:48:44.246Z,0.00
2018-05-23T00:49:44.750Z,0.00
2018-05-23T00:50:44.163Z,0.00
2018-05-23T00:51:44.147Z,0.00
2018-05-23T00:52:44.299Z,0.00
2018-05-23T00:53:44.042Z,0.00
2018-05-23T00:54:43.980Z,0.00
2018-05-23T00:55:43.949Z,0.00
2018-05-23T00:56:43.893Z,0.00
2018-05-23T00:57:43.839Z,0.00
2018-05-23T00:58:43.983Z,0.00
2018-05-23T00:59:43.775Z,0.00
2018-05-23T01:00:43.712Z,0.00
2018-05-23T01:01:43.656Z,0.00
2018-05-23T01:02:43.628Z,0.00
2018-05-23T01:03:43.568Z,0.00
2018-05-23T01:04:43.723Z,0.00
2018-05-23T01:05:43.468Z,0.00
2018-05-23T01:06:43.616Z,0.00
2018-05-23T01:07:43.369Z,0.00
2018-05-23T01:08:43.359Z,0.00
2018-05-23T01:09:43.285Z,0.00
2018-05-23T01:10:43.439Z,0.00
2018-05-23T01:11:43.234Z,0.00
2018-05-23T01:12:43.149Z,0.00
2018-05-23T01:13:43.090Z,0.00
2018-05-23T01:14:43.069Z,0.00
2018-05-23T01:15:43.015Z,0.00
2018-05-23T01:16:43.182Z,0.00
2018-05-23T01:17:42.929Z,0.00
2018-05-23T01:18:42.873Z,0.00
2018-05-23T01:19:42.859Z,0.00
2018-05-23T01:20:42.807Z,0.00
2018-05-23T01:21:42.746Z,0.00
2018-05-23T01:22:42.888Z,0.00
2018-05-23T01:23:42.636Z,0.00
2018-05-23T01:24:42.795Z,0.00
2018-05-23T01:25:42.565Z,0.00
2018-05-23T01:26:42.502Z,0.00
2018-05-23T01:27:42.464Z,0.00
2018-05-23T01:28:42.590Z,0.00
2018-05-23T01:29:42.347Z,0.00
2018-05-23T01:30:42.339Z,0.00
2018-05-23T01:31:42.277Z,0.00
2018-05-23T01:32:42.216Z,0.00
2018-05-23T01:33:42.197Z,0.00
2018-05-23T01:34:42.347Z,0.00
2018-05-23T01:35:42.080Z,0.00
2018-05-23T01:36:42.033Z,0.00
2018-05-23T01:37:41.978Z,0.00
2018-05-23T01:38:41.955Z,0.00
2018-05-23T01:39:42.106Z,0.00
2018-05-23T01:40:42.079Z,0.00
2018-05-23T01:41:41.808Z,0.00
2018-05-23T01:42:41.741Z,0.00
2018-05-23T01:43:41.721Z,0.00
2018-05-23T01:44:41.663Z,0.00
2018-05-23T01:45:41.818Z,0.00
2018-05-23T01:46:41.565Z,0.00
2018-05-23T01:47:41.514Z,0.00
2018-05-23T01:48:41.508Z,0.00
2018-05-23T01:49:41.449Z,0.00
2018-05-23T01:50:41.384Z,0.00
2018-05-23T01:51:41.549Z,0.00
2018-05-23T01:52:41.289Z,0.00
2018-05-23T01:53:41.268Z,0.00
2018-05-23T01:54:41.239Z,0.00
2018-05-23T01:55:41.140Z,0.00
2018-05-23T01:56:41.111Z,0.00
2018-05-23T01:57:41.256Z,0.00
2018-05-23T01:58:41.014Z,0.00
2018-05-23T01:59:40.971Z,0.00
2018-05-23T02:00:40.934Z,0.00
2018-05-23T02:01:40.888Z,0.00
2018-05-23T02:02:40.835Z,0.00
2018-05-23T02:03:41.005Z,0.00
2018-05-23T02:04:40.727Z,0.00
2018-05-23T02:05:40.709Z,0.00
2018-05-23T02:06:40.666Z,0.00
2018-05-23T02:07:40.617Z,0.00
2018-05-23T02:08:40.572Z,0.00
2018-05-23T02:09:40.891Z,0.00
2018-05-23T02:10:40.440Z,0.00
2018-05-23T02:11:40.425Z,0.00
2018-05-23T02:12:40.380Z,0.00
2018-05-23T02:13:40.325Z,0.00
2018-05-23T02:14:40.275Z,0.00
2018-05-23T02:15:40.429Z,0.00
2018-05-23T02:16:40.203Z,0.00
2018-05-23T02:17:40.131Z,0.00
2018-05-23T02:18:40.093Z,0.00
2018-05-23T02:19:40.022Z,0.00
2018-05-23T02:20:40.010Z,0.00
2018-05-23T02:21:40.146Z,0.00
2018-05-23T02:22:39.888Z,0.00
2018-05-23T02:23:39.854Z,0.00
2018-05-23T02:24:39.785Z,0.00
2018-05-23T02:25:39.757Z,0.00
2018-05-23T02:26:39.714Z,0.00
2018-05-23T02:27:39.885Z,0.00
2018-05-23T02:28:39.639Z,0.00
2018-05-23T02:29:39.585Z,0.00
2018-05-23T02:30:39.534Z,0.00
2018-05-23T02:31:39.463Z,0.00
2018-05-23T02:32:39.415Z,0.00
2018-05-23T02:33:39.591Z,0.00
2018-05-23T02:34:39.528Z,0.00
2018-05-23T02:35:39.507Z,0.00
2018-05-23T02:36:39.277Z,0.00
2018-05-23T02:37:39.193Z,0.00
2018-05-23T02:38:39.141Z,0.00
2018-05-23T02:39:39.306Z,0.00
2018-05-23T02:40:39.057Z,0.00
2018-05-23T02:41:39.018Z,0.00
2018-05-23T02:42:38.962Z,0.00
2018-05-23T02:43:38.940Z,0.00
2018-05-23T02:44:38.888Z,0.00
2018-05-23T02:45:39.016Z,0.00
2018-05-23T02:46:38.803Z,0.00
2018-05-23T02:47:38.735Z,0.00
2018-05-23T02:48:38.691Z,0.00
2018-05-23T02:49:38.658Z,0.00
2018-05-23T02:50:38.605Z,0.00
2018-05-23T02:51:38.739Z,0.00
2018-05-23T02:52:38.510Z,0.00
2018-05-23T02:53:38.457Z,0.00
2018-05-23T02:54:38.425Z,0.00
2018-05-23T02:55:38.354Z,0.00
2018-05-23T02:56:38.321Z,0.00
2018-05-23T02:57:38.468Z,0.00
2018-05-23T02:58:38.227Z,0.00
2018-05-23T02:59:38.170Z,0.00
2018-05-23T03:00:38.107Z,0.00
2018-05-23T03:01:38.100Z,0.00
2018-05-23T03:02:38.034Z,0.00
2018-05-23T03:03:38.190Z,0.00
2018-05-23T03:04:37.937Z,0.00
2018-05-23T03:05:37.912Z,0.00
2018-05-23T03:06:37.867Z,0.00
2018-05-23T03:07:37.777Z,0.00
2018-05-23T03:08:37.786Z,0.00
2018-05-23T03:09:37.898Z,0.00
2018-05-23T03:10:37.679Z,0.00
2018-05-23T03:11:37.608Z,0.00
2018-05-23T03:12:37.557Z,0.00
2018-05-23T03:13:37.529Z,0.00
2018-05-23T03:14:37.464Z,0.00
2018-05-23T03:15:37.629Z,0.00
2018-05-23T03:16:37.400Z,0.00
2018-05-23T03:17:37.349Z,0.00
2018-05-23T03:18:37.276Z,0.00
2018-05-23T03:19:37.218Z,0.00
2018-05-23T03:20:37.198Z,0.00
2018-05-23T03:21:37.332Z,0.00
2018-05-23T03:22:37.081Z,0.00
2018-05-23T03:23:37.057Z,0.00
2018-05-23T03:24:36.997Z,0.00
2018-05-23T03:25:36.965Z,0.00
2018-05-23T03:26:36.903Z,0.00
2018-05-23T03:27:37.052Z,0.00
2018-05-23T03:28:36.800Z,0.00
2018-05-23T03:29:36.790Z,0.00
2018-05-23T03:30:36.724Z,0.00
2018-05-23T03:31:36.682Z,0.00
2018-05-23T03:32:36.648Z,0.00
2018-05-23T03:33:36.805Z,0.00
2018-05-23T03:34:36.536Z,0.00
2018-05-23T03:35:36.473Z,0.00
2018-05-23T03:36:36.466Z,0.00
2018-05-23T03:37:36.391Z,0.00
2018-05-23T03:38:36.341Z,0.00
2018-05-23T03:39:36.514Z,0.00
2018-05-23T03:40:36.238Z,0.00
2018-05-23T03:41:36.199Z,0.00
2018-05-23T03:42:36.187Z,0.00
2018-05-23T03:43:36.135Z,0.00
2018-05-23T03:44:36.068Z,0.00
2018-05-23T03:45:36.241Z,0.00
2018-05-23T03:46:36.003Z,0.00
2018-05-23T03:47:35.921Z,0.00
2018-05-23T03:48:35.889Z,0.00
2018-05-23T03:49:35.841Z,0.00
2018-05-23T03:50:35.777Z,0.00
2018-05-23T03:51:35.934Z,0.00
2018-05-23T03:52:35.891Z,0.00
2018-05-23T03:53:35.666Z,0.00
2018-05-23T03:54:35.589Z,0.00
2018-05-23T03:55:35.538Z,0.00
2018-05-23T03:56:35.498Z,0.00
2018-05-23T03:57:35.657Z,0.00
2018-05-23T03:58:35.421Z,0.00
2018-05-23T03:59:35.374Z,0.00
2018-05-23T04:00:35.324Z,0.00
2018-05-23T04:01:35.276Z,0.00
2018-05-23T04:02:35.222Z,0.00
2018-05-23T04:03:35.588Z,0.00
2018-05-23T04:04:35.124Z,0.00
2018-05-23T04:05:35.088Z,0.00
2018-05-23T04:06:35.037Z,0.00
2018-05-23T04:07:34.983Z,0.00
2018-05-23T04:08:34.942Z,0.00
2018-05-23T04:09:35.091Z,0.00
2018-05-23T04:10:34.856Z,0.00
2018-05-23T04:11:34.818Z,0.00
2018-05-23T04:12:34.749Z,0.00
2018-05-23T04:13:34.721Z,0.00
2018-05-23T04:14:34.642Z,0.00
2018-05-23T04:15:34.829Z,0.00
2018-05-23T04:16:34.565Z,0.00
2018-05-23T04:17:34.513Z,0.00
2018-05-23T04:18:34.490Z,0.00
2018-05-23T04:19:34.458Z,0.00
2018-05-23T04:20:34.386Z,0.00
2018-05-23T04:21:34.609Z,0.00
2018-05-23T04:22:34.287Z,0.00
2018-05-23T04:23:34.252Z,0.00
2018-05-23T04:24:34.188Z,0.00
2018-05-23T04:25:34.138Z,0.00
2018-05-23T04:26:34.103Z,0.00
2018-05-23T04:27:34.246Z,0.00
2018-05-23T04:28:34.006Z,0.00
2018-05-23T04:29:33.960Z,0.00
2018-05-23T04:30:33.929Z,0.00
2018-05-23T04:31:33.861Z,0.00
2018-05-23T04:32:33.810Z,0.00
2018-05-23T04:33:33.964Z,0.00
2018-05-23T04:34:33.708Z,0.00
2018-05-23T04:35:33.670Z,0.00
2018-05-23T04:36:33.635Z,0.00
2018-05-23T04:37:33.606Z,0.00
2018-05-23T04:38:33.522Z,0.00
2018-05-23T04:39:33.678Z,0.00
2018-05-23T04:40:33.460Z,0.00
2018-05-23T04:41:33.399Z,0.00
2018-05-23T04:42:33.332Z,0.00
2018-05-23T04:43:33.291Z,0.00
2018-05-23T04:44:33.258Z,0.00
2018-05-23T04:45:33.397Z,0.00
2018-05-23T04:46:33.183Z,0.00
2018-05-23T04:47:33.092Z,0.00
2018-05-23T04:48:33.059Z,0.00
2018-05-23T04:49:33.019Z,0.00
2018-05-23T04:50:32.982Z,0.00
2018-05-23T04:51:33.113Z,0.00
2018-05-23T04:52:32.858Z,0.00
2018-05-23T04:53:32.844Z,0.00
2018-05-23T04:54:32.762Z,0.00
2018-05-23T04:55:32.749Z,0.00
2018-05-23T04:56:32.684Z,0.00
2018-05-23T04:57:32.853Z,0.00
2018-05-23T04:58:32.583Z,0.00
2018-05-23T04:59:32.548Z,0.00
2018-05-23T05:00:32.491Z,0.00
2018-05-23T05:01:32.463Z,0.00
2018-05-23T05:02:32.413Z,0.00
2018-05-23T05:03:32.542Z,0.00
2018-05-23T05:04:32.301Z,0.00
2018-05-23T05:05:32.274Z,0.00
2018-05-23T05:06:32.204Z,0.00
2018-05-23T05:07:32.157Z,0.00
2018-05-23T05:08:32.122Z,0.00
2018-05-23T05:09:32.299Z,0.00
2018-05-23T05:10:32.009Z,0.00
2018-05-23T05:11:31.985Z,0.00
2018-05-23T05:12:31.946Z,0.00
2018-05-23T05:13:31.898Z,0.00
2018-05-23T05:14:31.844Z,0.00
2018-05-23T05:15:32.018Z,0.00
2018-05-23T05:16:31.762Z,0.00
2018-05-23T05:17:31.719Z,0.00
2018-05-23T05:18:31.674Z,0.00
2018-05-23T05:19:31.612Z,0.00
2018-05-23T05:20:31.560Z,0.00
2018-05-23T05:21:31.725Z,0.00
2018-05-23T05:22:31.456Z,0.00
2018-05-23T05:23:31.424Z,0.00
2018-05-23T05:24:31.397Z,0.00
2018-05-23T05:25:31.334Z,0.00
2018-05-23T05:26:31.288Z,0.00
2018-05-23T05:27:31.445Z,0.00
2018-05-23T05:28:31.193Z,0.00
2018-05-23T05:29:31.128Z,0.00
2018-05-23T05:30:31.083Z,0.00
2018-05-23T05:31:31.031Z,0.00
2018-05-23T05:32:31.005Z,0.00
2018-05-23T05:33:31.170Z,0.00
2018-05-23T05:34:30.897Z,0.00
2018-05-23T05:35:30.886Z,0.00
2018-05-23T05:36:30.786Z,0.00
2018-05-23T05:37:30.738Z,0.00
2018-05-23T05:38:30.738Z,0.00
2018-05-23T05:39:30.855Z,0.00
2018-05-23T05:40:30.730Z,0.00
2018-05-23T05:41:30.593Z,0.00
2018-05-23T05:42:30.517Z,0.00
2018-05-23T05:43:30.483Z,0.00
2018-05-23T05:44:30.436Z,0.00
2018-05-23T05:45:30.578Z,0.00
2018-05-23T05:46:30.315Z,0.00
2018-05-23T05:47:30.287Z,0.00
2018-05-23T05:48:30.253Z,0.00
2018-05-23T05:49:30.197Z,0.00
2018-05-23T05:50:30.127Z,0.00
2018-05-23T05:51:30.310Z,0.00
2018-05-23T05:52:30.059Z,0.00
2018-05-23T05:53:30.026Z,0.00
2018-05-23T05:54:29.971Z,0.00
2018-05-23T05:55:29.908Z,0.00
2018-05-23T05:56:30.066Z,0.00
2018-05-23T05:57:29.796Z,0.00
2018-05-23T05:58:29.762Z,0.00
2018-05-23T05:59:29.731Z,0.00
2018-05-23T06:00:29.683Z,0.00
2018-05-23T06:01:29.635Z,0.00
2018-05-23T06:02:29.776Z,0.00
2018-05-23T06:03:29.549Z,0.00
2018-05-23T06:04:29.497Z,0.00
2018-05-23T06:05:29.440Z,0.00
2018-05-23T06:06:29.403Z,0.00
2018-05-23T06:07:29.347Z,0.00
2018-05-23T06:08:29.482Z,0.00
2018-05-23T06:09:29.275Z,0.00
2018-05-23T06:10:29.192Z,0.00
2018-05-23T06:11:29.182Z,0.00
2018-05-23T06:12:29.129Z,0.00
2018-05-23T06:13:29.053Z,0.00
2018-05-23T06:14:29.212Z,0.00
2018-05-23T06:15:28.989Z,0.00
2018-05-23T06:16:28.913Z,0.00
2018-05-23T06:17:28.869Z,0.00
2018-05-23T06:18:28.825Z,0.00
2018-05-23T06:19:28.755Z,0.00
2018-05-23T06:20:28.938Z,0.00
2018-05-23T06:21:28.673Z,0.00
2018-05-23T06:22:28.644Z,0.00
2018-05-23T06:23:28.567Z,0.00
2018-05-23T06:24:28.538Z,0.00
2018-05-23T06:25:28.507Z,0.00
2018-05-23T06:26:28.654Z,0.00
2018-05-23T06:27:28.413Z,0.00
2018-05-23T06:28:28.334Z,0.00
2018-05-23T06:29:28.286Z,0.00
2018-05-23T06:30:28.420Z,0.00
2018-05-23T06:31:28.214Z,0.00
2018-05-23T06:32:28.353Z,0.00
2018-05-23T06:33:28.110Z,0.00
2018-05-23T06:34:28.050Z,0.00
2018-05-23T06:35:28.001Z,0.00
2018-05-23T06:36:27.969Z,0.00
2018-05-23T06:37:27.925Z,0.00
2018-05-23T06:38:28.096Z,0.00
2018-05-23T06:39:27.844Z,0.00
2018-05-23T06:40:27.775Z,0.00
2018-05-23T06:41:27.733Z,0.00
2018-05-23T06:42:27.713Z,0.00
2018-05-23T06:43:27.636Z,0.00
2018-05-23T06:44:27.777Z,0.00
2018-05-23T06:45:27.531Z,0.00
2018-05-23T06:46:27.512Z,0.00
2018-05-23T06:47:27.458Z,0.00
2018-05-23T06:48:27.411Z,0.00
2018-05-23T06:49:27.371Z,0.00
2018-05-23T06:50:27.493Z,0.00
2018-05-23T06:51:27.275Z,0.00
2018-05-23T06:52:27.226Z,0.00
2018-05-23T06:53:27.167Z,0.00
2018-05-23T06:54:27.141Z,0.00
2018-05-23T06:55:27.088Z,0.00
2018-05-23T06:56:27.240Z,0.00
2018-05-23T06:57:26.992Z,0.00
2018-05-23T06:58:26.929Z,0.00
2018-05-23T06:59:26.912Z,0.00
2018-05-23T07:00:26.850Z,0.00
2018-05-23T07:01:27.003Z,0.00
2018-05-23T07:02:26.747Z,0.00
2018-05-23T07:03:26.709Z,0.00
2018-05-23T07:04:26.650Z,0.00
2018-05-23T07:05:26.596Z,0.00
2018-05-23T07:06:26.551Z,0.00
2018-05-23T07:07:26.713Z,0.00
2018-05-23T07:08:26.504Z,0.00
2018-05-23T07:09:26.412Z,0.00
2018-05-23T07:10:26.366Z,0.00
2018-05-23T07:11:26.340Z,0.00
2018-05-23T07:12:26.273Z,0.00
2018-05-23T07:13:26.446Z,0.00
2018-05-23T07:14:26.191Z,0.00
2018-05-23T07:15:26.122Z,0.00
2018-05-23T07:16:26.086Z,0.00
2018-05-23T07:17:26.043Z,0.00
2018-05-23T07:18:25.994Z,0.00
2018-05-23T07:19:26.159Z,0.00
2018-05-23T07:20:25.919Z,0.00
2018-05-23T07:21:25.840Z,0.00
2018-05-23T07:22:25.818Z,0.00
2018-05-23T07:23:25.790Z,0.00
2018-05-23T07:24:25.709Z,0.00
2018-05-23T07:25:25.848Z,0.00
2018-05-23T07:26:25.628Z,0.00
2018-05-23T07:27:25.567Z,0.00
2018-05-23T07:28:25.494Z,0.00
2018-05-23T07:29:25.471Z,0.00
2018-05-23T07:30:25.423Z,0.00
2018-05-23T07:31:25.572Z,0.00
2018-05-23T07:32:25.394Z,0.00
2018-05-23T07:33:25.272Z,0.00
2018-05-23T07:34:25.242Z,0.00
2018-05-23T07:35:25.180Z,0.00
2018-05-23T07:36:25.154Z,0.00
2018-05-23T07:37:25.275Z,0.00
2018-05-23T07:38:25.064Z,0.00
2018-05-23T07:39:25.003Z,0.00
2018-05-23T07:40:24.976Z,0.00
2018-05-23T07:41:24.874Z,0.00
2018-05-23T07:42:24.825Z,0.00
2018-05-23T07:43:25.013Z,0.00
2018-05-23T07:44:24.774Z,0.00
2018-05-23T07:45:24.715Z,0.00
2018-05-23T07:46:24.654Z,0.00
2018-05-23T07:47:24.614Z,0.00
2018-05-23T07:48:24.555Z,0.00
2018-05-23T07:49:24.723Z,0.00
2018-05-23T07:50:24.477Z,0.00
2018-05-23T07:51:24.435Z,0.00
2018-05-23T07:52:24.385Z,0.00
2018-05-23T07:53:24.336Z,0.00
2018-05-23T07:54:24.293Z,0.00
2018-05-23T07:55:24.422Z,0.00
2018-05-23T07:56:24.182Z,0.00
2018-05-23T07:57:24.139Z,0.00
2018-05-23T07:58:24.101Z,0.00
2018-05-23T07:59:24.047Z,0.00
2018-05-23T08:00:23.990Z,0.00
2018-05-23T08:01:24.169Z,0.00
2018-05-23T08:02:23.889Z,0.00
2018-05-23T08:03:23.848Z,0.00
2018-05-23T08:04:23.815Z,0.00
2018-05-23T08:05:23.755Z,0.00
2018-05-23T08:06:23.703Z,0.00
2018-05-23T08:07:23.856Z,0.00
2018-05-23T08:08:24.162Z,0.00
2018-05-23T08:09:23.579Z,0.00
2018-05-23T08:10:23.538Z,0.00
2018-05-23T08:11:23.480Z,0.00
2018-05-23T08:12:23.434Z,0.00
2018-05-23T08:13:23.619Z,0.00
2018-05-23T08:14:23.358Z,0.00
2018-05-23T08:15:23.280Z,0.00
2018-05-23T08:16:23.255Z,0.00
2018-05-23T08:17:23.181Z,0.00
2018-05-23T08:18:23.132Z,0.00
2018-05-23T08:19:23.294Z,0.00
2018-05-23T08:20:23.052Z,0.00
2018-05-23T08:21:22.985Z,0.00
2018-05-23T08:22:22.946Z,0.00
2018-05-23T08:23:22.878Z,0.00
2018-05-23T08:24:22.949Z,0.00
2018-05-23T08:25:23.010Z,0.00
2018-05-23T08:26:22.748Z,0.00
2018-05-23T08:27:22.707Z,0.00
2018-05-23T08:28:22.658Z,0.00
2018-05-23T08:29:22.630Z,0.00
2018-05-23T08:30:22.576Z,0.00
2018-05-23T08:31:22.753Z,0.00
2018-05-23T08:32:22.483Z,0.00
2018-05-23T08:33:22.419Z,0.00
2018-05-23T08:34:22.384Z,0.00
2018-05-23T08:35:22.347Z,0.00
2018-05-23T08:36:22.330Z,0.00
2018-05-23T08:37:22.429Z,0.00
2018-05-23T08:38:22.178Z,0.00
2018-05-23T08:39:22.135Z,0.00
2018-05-23T08:40:22.118Z,0.00
2018-05-23T08:41:22.037Z,0.00
2018-05-23T08:42:22.000Z,0.00
2018-05-23T08:43:22.136Z,0.00
2018-05-23T08:44:21.897Z,0.00
2018-05-23T08:45:21.829Z,0.00
2018-05-23T08:46:21.816Z,0.00
2018-05-23T08:47:21.739Z,0.00
2018-05-23T08:48:21.711Z,0.00
2018-05-23T08:49:21.856Z,0.00
2018-05-23T08:50:21.626Z,0.00
2018-05-23T08:51:21.571Z,0.00
2018-05-23T08:52:21.525Z,0.00
2018-05-23T08:53:21.447Z,0.00
2018-05-23T08:54:21.431Z,0.00
2018-05-23T08:55:21.590Z,0.00
2018-05-23T08:56:21.336Z,0.00
2018-05-23T08:57:21.297Z,0.00
2018-05-23T08:58:21.218Z,0.00
2018-05-23T08:59:21.193Z,0.00
2018-05-23T09:00:21.130Z,0.00
2018-05-23T09:01:21.309Z,0.00
2018-05-23T09:02:21.045Z,0.00
2018-05-23T09:03:20.974Z,0.00
2018-05-23T09:04:20.966Z,0.00
2018-05-23T09:05:20.890Z,0.00
2018-05-23T09:06:20.875Z,0.00
2018-05-23T09:07:21.010Z,0.00
2018-05-23T09:08:20.737Z,0.00
2018-05-23T09:09:20.712Z,0.00
2018-05-23T09:10:20.680Z,0.00
2018-05-23T09:11:20.605Z,0.00
2018-05-23T09:12:20.605Z,0.00
2018-05-23T09:13:20.714Z,0.00
2018-05-23T09:14:20.449Z,0.00
2018-05-23T09:15:20.417Z,0.00
2018-05-23T09:16:20.375Z,0.00
2018-05-23T09:17:20.323Z,0.00
2018-05-23T09:18:20.308Z,0.00
2018-05-23T09:19:20.420Z,0.00
2018-05-23T09:20:20.203Z,0.00
2018-05-23T09:21:20.160Z,0.00
2018-05-23T09:22:20.099Z,0.00
2018-05-23T09:23:20.038Z,0.00
2018-05-23T09:24:20.001Z,0.00
2018-05-23T09:25:20.161Z,0.00
2018-05-23T09:26:19.921Z,0.00
2018-05-23T09:27:19.872Z,0.00
2018-05-23T09:28:19.825Z,0.00
2018-05-23T09:29:19.775Z,0.00
2018-05-23T09:30:19.699Z,0.00
2018-05-23T09:31:19.843Z,0.00
2018-05-23T09:32:19.703Z,0.00
2018-05-23T09:33:19.567Z,0.00
2018-05-23T09:34:19.515Z,0.00
2018-05-23T09:35:19.450Z,0.00
2018-05-23T09:36:19.403Z,0.00
2018-05-23T09:37:19.584Z,0.00
2018-05-23T09:38:19.339Z,0.00
2018-05-23T09:39:19.284Z,0.00
2018-05-23T09:40:19.226Z,0.00
2018-05-23T09:41:19.192Z,0.00
2018-05-23T09:42:19.131Z,0.00
2018-05-23T09:43:19.271Z,0.00
2018-05-23T09:44:19.034Z,0.00
2018-05-23T09:45:18.985Z,0.00
2018-05-23T09:46:18.927Z,0.00
2018-05-23T09:47:18.906Z,0.00
2018-05-23T09:48:18.845Z,0.00
2018-05-23T09:49:18.984Z,0.00
2018-05-23T09:50:18.778Z,0.00
2018-05-23T09:51:18.734Z,0.00
2018-05-23T09:52:18.655Z,0.00
2018-05-23T09:53:18.601Z,0.00
2018-05-23T09:54:18.559Z,0.00
2018-05-23T09:55:18.718Z,0.00
2018-05-23T09:56:18.485Z,0.00
2018-05-23T09:57:18.421Z,0.00
2018-05-23T09:58:18.394Z,5.63
2018-05-23T09:59:18.316Z,5.63
2018-05-23T10:00:18.271Z,5.63
2018-05-23T10:01:18.412Z,5.63
2018-05-23T10:02:18.206Z,5.63
2018-05-23T10:03:18.139Z,5.63
2018-05-23T10:04:18.090Z,5.63
2018-05-23T10:05:18.023Z,5.63
2018-05-23T10:06:18.020Z,5.63
2018-05-23T10:07:18.161Z,5.63
2018-05-23T10:08:17.900Z,5.63
2018-05-23T10:09:17.843Z,5.63
2018-05-23T10:10:17.825Z,5.63
2018-05-23T10:11:17.750Z,5.63
2018-05-23T10:12:17.715Z,5.63
2018-05-23T10:13:17.843Z,5.63
2018-05-23T10:14:17.597Z,5.63
2018-05-23T10:15:17.568Z,5.63
2018-05-23T10:16:17.539Z,5.63
2018-05-23T10:17:17.463Z,5.63
2018-05-23T10:18:17.403Z,5.63
2018-05-23T10:19:17.582Z,5.63
2018-05-23T10:20:17.314Z,5.63
2018-05-23T10:21:17.261Z,11.25
2018-05-23T10:22:17.816Z,11.25
2018-05-23T10:23:17.190Z,11.25
2018-05-23T10:24:17.145Z,11.25
2018-05-23T10:25:17.285Z,11.25
2018-05-23T10:26:17.105Z,11.25
2018-05-23T10:27:17.004Z,11.25
2018-05-23T10:28:16.966Z,11.25
2018-05-23T10:29:16.897Z,11.25
2018-05-23T10:30:16.859Z,11.25
2018-05-23T10:31:17.008Z,11.25
2018-05-23T10:32:16.737Z,11.25
2018-05-23T10:33:16.781Z,11.25
2018-05-23T10:34:16.640Z,11.25
2018-05-23T10:35:16.626Z,11.25
2018-05-23T10:36:16.565Z,11.25
2018-05-23T10:37:16.718Z,16.88
2018-05-23T10:38:16.482Z,16.88
2018-05-23T10:39:16.457Z,16.88
2018-05-23T10:40:16.390Z,16.88
2018-05-23T10:41:16.330Z,16.88
2018-05-23T10:42:16.282Z,16.88
2018-05-23T10:43:16.450Z,16.88
2018-05-23T10:44:16.173Z,22.50
2018-05-23T10:45:16.153Z,22.50
2018-05-23T10:46:16.193Z,22.50
2018-05-23T10:47:16.057Z,16.88
2018-05-23T10:48:16.000Z,22.50
2018-05-23T10:49:16.148Z,33.75
2018-05-23T10:50:15.932Z,28.13
2018-05-23T10:51:15.856Z,22.50
2018-05-23T10:52:15.809Z,16.88
2018-05-23T10:53:15.757Z,16.88
2018-05-23T10:54:15.746Z,16.88
2018-05-23T10:55:15.882Z,22.50
2018-05-23T10:56:15.620Z,22.50
2018-05-23T10:57:15.744Z,33.75
2018-05-23T10:58:15.539Z,39.38
2018-05-23T10:59:15.481Z,45.00
2018-05-23T11:00:15.527Z,61.88
2018-05-23T11:01:15.603Z,73.13
2018-05-23T11:02:15.377Z,90.00
2018-05-23T11:03:15.291Z,112.50
2018-05-23T11:04:15.245Z,264.38
2018-05-23T11:05:15.199Z,241.88
2018-05-23T11:06:15.146Z,421.88
2018-05-23T11:07:15.287Z,202.50
2018-05-23T11:08:15.068Z,489.38
2018-05-23T11:09:15.008Z,438.75
2018-05-23T11:10:14.962Z,253.13
2018-05-23T11:11:14.920Z,129.38
2018-05-23T11:12:14.869Z,135.00
2018-05-23T11:13:15.057Z,129.38
2018-05-23T11:14:14.800Z,118.13
2018-05-23T11:15:14.840Z,185.63
2018-05-23T11:16:14.712Z,151.88
2018-05-23T11:17:14.656Z,163.13
2018-05-23T11:18:14.612Z,168.75
2018-05-23T11:19:14.758Z,151.88
2018-05-23T11:20:14.551Z,163.13
2018-05-23T11:21:14.464Z,185.63
2018-05-23T11:22:14.431Z,168.75
2018-05-23T11:23:14.384Z,135.00
2018-05-23T11:24:14.342Z,112.50
2018-05-23T11:25:14.480Z,106.88
2018-05-23T11:26:14.228Z,101.25
2018-05-23T11:27:14.177Z,101.25
2018-05-23T11:28:14.144Z,84.38
2018-05-23T11:29:14.110Z,84.38
2018-05-23T11:30:14.067Z,84.38
2018-05-23T11:31:14.201Z,73.13
2018-05-23T11:32:13.973Z,67.50
2018-05-23T11:33:13.927Z,67.50
2018-05-23T11:34:13.867Z,67.50
2018-05-23T11:35:13.825Z,67.50
2018-05-23T11:36:13.782Z,73.13
2018-05-23T11:37:13.936Z,73.13
2018-05-23T11:38:13.673Z,84.38
2018-05-23T11:39:13.646Z,67.50
2018-05-23T11:40:13.595Z,61.88
2018-05-23T11:41:13.555Z,56.25
2018-05-23T11:42:13.519Z,56.25
2018-05-23T11:43:13.669Z,56.25
2018-05-23T11:44:13.453Z,61.88
2018-05-23T11:45:13.358Z,61.88
2018-05-23T11:46:13.336Z,61.88
2018-05-23T11:47:13.269Z,61.88
2018-05-23T11:48:13.279Z,67.50
2018-05-23T11:49:13.467Z,73.13
2018-05-23T11:50:13.134Z,73.13
2018-05-23T11:51:13.088Z,67.50
2018-05-23T11:52:13.091Z,73.13
2018-05-23T11:53:12.981Z,73.13
2018-05-23T11:54:12.974Z,73.13
2018-05-23T11:55:13.097Z,67.50
2018-05-23T11:56:12.861Z,61.88
2018-05-23T11:57:12.812Z,61.88
2018-05-23T11:58:12.769Z,67.50
2018-05-23T11:59:12.734Z,73.13
2018-05-23T12:00:12.672Z,84.38
2018-05-23T12:01:12.854Z,84.38
2018-05-23T12:02:12.574Z,84.38
2018-05-23T12:03:12.551Z,78.75
2018-05-23T12:04:12.475Z,73.13
2018-05-23T12:05:12.456Z,84.38
2018-05-23T12:06:12.417Z,73.13
2018-05-23T12:07:12.562Z,61.88
2018-05-23T12:08:12.291Z,61.88
2018-05-23T12:09:12.265Z,56.25
2018-05-23T12:10:12.237Z,50.63
2018-05-23T12:11:12.181Z,61.88
2018-05-23T12:12:12.120Z,61.88
2018-05-23T12:13:12.268Z,56.25
2018-05-23T12:14:12.025Z,61.88
2018-05-23T12:15:11.967Z,61.88
2018-05-23T12:16:11.921Z,67.50
2018-05-23T12:17:11.875Z,78.75
2018-05-23T12:18:11.842Z,95.63
2018-05-23T12:19:12.009Z,106.88
2018-05-23T12:20:11.758Z,118.13
2018-05-23T12:21:11.709Z,129.38
2018-05-23T12:22:11.690Z,123.75
2018-05-23T12:23:11.623Z,123.75
2018-05-23T12:24:11.567Z,123.75
2018-05-23T12:25:11.748Z,123.75
2018-05-23T12:26:11.510Z,129.38
2018-05-23T12:27:11.425Z,123.75
2018-05-23T12:28:11.389Z,123.75
2018-05-23T12:29:11.337Z,123.75
2018-05-23T12:30:11.289Z,135.00
2018-05-23T12:31:11.442Z,129.38
2018-05-23T12:32:11.220Z,135.00
2018-05-23T12:33:11.153Z,140.63
2018-05-23T12:34:11.106Z,168.75
2018-05-23T12:35:11.073Z,168.75
2018-05-23T12:36:11.029Z,163.13
2018-05-23T12:37:11.180Z,163.13
2018-05-23T12:38:10.926Z,163.13
2018-05-23T12:39:10.889Z,163.13
2018-05-23T12:40:10.818Z,163.13
2018-05-23T12:41:10.786Z,163.13
2018-05-23T12:42:10.734Z,151.88
2018-05-23T12:43:10.896Z,157.50
2018-05-23T12:44:10.648Z,157.50
2018-05-23T12:45:10.630Z,151.88
2018-05-23T12:46:10.581Z,151.88
2018-05-23T12:47:10.524Z,151.88
2018-05-23T12:48:10.482Z,151.88
2018-05-23T12:49:10.621Z,146.25
2018-05-23T12:50:10.362Z,146.25
2018-05-23T12:51:10.329Z,146.25
2018-05-23T12:52:10.273Z,146.25
2018-05-23T12:53:10.232Z,146.25
2018-05-23T12:54:10.205Z,140.63
2018-05-23T12:55:10.356Z,140.63
2018-05-23T12:56:10.098Z,135.00
2018-05-23T12:57:10.049Z,106.88
2018-05-23T12:58:10.025Z,146.25
2018-05-23T12:59:09.975Z,146.25
2018-05-23T13:00:09.937Z,146.25
2018-05-23T13:01:10.061Z,157.50
2018-05-23T13:02:09.829Z,146.25
2018-05-23T13:03:09.795Z,140.63
2018-05-23T13:04:09.744Z,151.88
2018-05-23T13:05:09.725Z,146.25
2018-05-23T13:06:09.649Z,151.88
2018-05-23T13:07:09.829Z,151.88
2018-05-23T13:08:09.549Z,151.88
2018-05-23T13:09:09.497Z,157.50
2018-05-23T13:10:09.467Z,157.50